Time;durP1;ratioP1;P1;durP2;ratioP2;P2;SDS_P1;SDS_P2;PMS_P1;PMS_P2;Temp;Humidity;BMP_temperature;BMP_pressure;BME280_temperature;BME280_humidity;BME280_pressure;Samples;Min_cycle;Max_cycle;Signal;HPM_P1;HPM_P2
2022/09/21 00:01:23;;;;;;;;;;;17.70;59.30;;;;;;5093569;28;20428;-69
2022/09/21 00:03:53;;;;;;;;;;;17.70;59.10;;;;;;5093472;28;19974;-69
2022/09/21 00:06:19;;;;;;;;;;;17.70;59.10;;;;;;5093815;28;19924;-69
2022/09/21 00:08:45;;;;;;;;;;;17.70;59.10;;;;;;5093736;28;19947;-69
2022/09/21 00:11:12;;;;;;;;;;;17.70;59.10;;;;;;5093731;28;20338;-69
2022/09/21 00:13:38;;;;;;;;;;;17.70;59.10;;;;;;5093299;28;19927;-69
2022/09/21 00:16:04;;;;;;;;;;;17.60;59.00;;;;;;5093698;28;19920;-70
2022/09/21 00:18:30;;;;;;;;;;;17.60;59.00;;;;;;5093263;28;19931;-69
2022/09/21 00:20:56;;;;;;;;;;;17.60;59.00;;;;;;5094626;28;19920;-69
2022/09/21 00:23:22;;;;;;;;;;;17.60;59.00;;;;;;5092785;28;19924;-69
2022/09/21 00:25:48;;;;;;;;;;;17.60;59.00;;;;;;5093207;28;19920;-69
2022/09/21 00:28:14;;;;;;;;;;;17.60;59.00;;;;;;5094517;28;20387;-69
2022/09/21 00:30:39;;;;;;;;;;;17.60;59.00;;;;;;5092959;28;20300;-73
2022/09/21 00:33:05;;;;;;;;;;;17.60;59.00;;;;;;5093107;28;20019;-69
2022/09/21 00:35:32;;;;;;;;;;;17.60;59.00;;;;;;5094253;28;19928;-69
2022/09/21 00:37:59;;;;;;;;;;;17.60;58.90;;;;;;5093098;28;19920;-69
2022/09/21 00:40:25;;;;;;;;;;;17.60;58.90;;;;;;5093172;28;19920;-73
2022/09/21 00:42:50;;;;;;;;;;;17.50;58.90;;;;;;5094169;28;19959;-73
2022/09/21 00:45:23;;;;;;;;;;;17.60;58.90;;;;;;5093136;28;20412;-69
2022/09/21 00:47:50;;;;;;;;;;;17.50;58.80;;;;;;5092623;28;19926;-69
2022/09/21 00:50:18;;;;;;;;;;;17.50;58.90;;;;;;5092943;28;20011;-69
2022/09/21 00:52:45;;;;;;;;;;;17.50;58.90;;;;;;5092930;28;19924;-69
2022/09/21 00:55:15;;;;;;;;;;;17.50;58.80;;;;;;5092491;28;19931;-69
2022/09/21 00:57:42;;;;;;;;;;;17.50;58.90;;;;;;5092537;28;19926;-69
2022/09/21 01:00:08;;;;;;;;;;;17.50;58.90;;;;;;5092721;28;19920;-69
2022/09/21 01:02:34;;;;;;;;;;;17.50;58.90;;;;;;5092499;28;19947;-69
2022/09/21 01:05:01;;;;;;;;;;;17.50;58.90;;;;;;5092642;28;19924;-69
2022/09/21 01:07:29;;;;;;;;;;;17.40;58.80;;;;;;5092436;28;19919;-73
2022/09/21 01:09:57;;;;;;;;;;;17.40;58.80;;;;;;5093424;28;19920;-69
2022/09/21 01:18:05;;;;;;;;;;;17.40;58.70;;;;;;5110355;27;20371;-67
2022/09/21 01:29:08;;;;;;;;;;;17.40;58.70;;;;;;5110328;27;19912;-67
2022/09/21 01:31:45;;;;;;;;;;;17.40;58.70;;;;;;5108930;28;20348;-67
2022/09/21 01:34:16;;;;;;;;;;;17.40;58.70;;;;;;5108853;28;19927;-67
2022/09/21 01:36:42;;;;;;;;;;;17.40;58.70;;;;;;5109084;28;20019;-67
2022/09/21 01:39:11;;;;;;;;;;;17.40;58.80;;;;;;5109118;28;20351;-67
2022/09/21 01:41:39;;;;;;;;;;;17.30;58.70;;;;;;5108978;28;19921;-67
2022/09/21 01:44:07;;;;;;;;;;;17.30;58.70;;;;;;5108805;28;20068;-67
2022/09/21 01:46:34;;;;;;;;;;;17.30;58.70;;;;;;5109864;28;19924;-67
2022/09/21 01:49:03;;;;;;;;;;;17.30;58.70;;;;;;5108665;28;19923;-67
2022/09/21 01:51:31;;;;;;;;;;;17.30;58.70;;;;;;5108574;28;19920;-67
2022/09/21 01:53:59;;;;;;;;;;;17.30;58.70;;;;;;5108890;28;19969;-67
2022/09/21 01:56:26;;;;;;;;;;;17.30;58.70;;;;;;5108766;28;19920;-67
2022/09/21 01:59:12;;;;;;;;;;;17.30;58.70;;;;;;5108460;28;19927;-67
2022/09/21 02:01:40;;;;;;;;;;;17.30;58.60;;;;;;5109534;28;19926;-67
2022/09/21 02:04:09;;;;;;;;;;;17.30;58.70;;;;;;5108694;28;19967;-67
2022/09/21 02:06:36;;;;;;;;;;;17.20;58.60;;;;;;5108136;28;19931;-67
2022/09/21 02:09:01;;;;;;;;;;;17.20;58.60;;;;;;5108308;28;20024;-67
2022/09/21 02:11:27;;;;;;;;;;;17.30;58.60;;;;;;5108147;28;19978;-67
2022/09/21 02:13:53;;;;;;;;;;;17.20;58.50;;;;;;5107553;28;20010;-67
2022/09/21 02:22:05;;;;;;;;;;;17.20;58.60;;;;;;5172341;27;19940;-67
2022/09/21 02:30:06;;;;;;;;;;;17.20;58.50;;;;;;5088927;28;20414;-67
2022/09/21 02:32:51;;;;;;;;;;;17.20;58.50;;;;;;5068307;28;19920;-67
2022/09/21 02:35:36;;;;;;;;;;;17.20;58.50;;;;;;5068550;28;19943;-73
2022/09/21 02:40:51;;;;;;;;;;;17.10;58.40;;;;;;5089983;28;19912;-67
2022/09/21 02:43:20;;;;;;;;;;;17.10;58.40;;;;;;5088550;28;20430;-67
2022/09/21 02:45:52;;;;;;;;;;;17.10;58.40;;;;;;5088867;28;20441;-67
2022/09/21 02:48:20;;;;;;;;;;;17.10;58.40;;;;;;5088362;28;19927;-67
2022/09/21 02:50:49;;;;;;;;;;;17.10;58.40;;;;;;5088406;28;19920;-67
2022/09/21 02:53:17;;;;;;;;;;;17.10;58.40;;;;;;5089684;28;19968;-67
2022/09/21 02:55:44;;;;;;;;;;;17.10;58.50;;;;;;5071925;28;19921;-67
2022/09/21 02:58:12;;;;;;;;;;;17.10;58.40;;;;;;5089699;28;20335;-71
2022/09/21 03:00:38;;;;;;;;;;;17.10;58.40;;;;;;5089549;28;19978;-67
2022/09/21 03:03:20;;;;;;;;;;;17.10;58.40;;;;;;5089534;28;19925;-67
2022/09/21 03:05:47;;;;;;;;;;;17.10;58.40;;;;;;5084917;28;19921;-67
2022/09/21 03:08:13;;;;;;;;;;;17.10;58.40;;;;;;5069318;28;19928;-72
2022/09/21 03:10:39;;;;;;;;;;;17.10;58.40;;;;;;5068270;28;19920;-67
2022/09/21 03:13:07;;;;;;;;;;;17.00;58.30;;;;;;5084946;28;20280;-71
2022/09/21 03:15:34;;;;;;;;;;;17.00;58.30;;;;;;5067839;28;19999;-67
2022/09/21 03:18:00;;;;;;;;;;;17.00;58.30;;;;;;5069038;28;20273;-67
2022/09/21 03:20:25;;;;;;;;;;;17.00;58.30;;;;;;5084508;28;19924;-66
2022/09/21 03:22:50;;;;;;;;;;;17.00;58.30;;;;;;5084602;28;19927;-71
2022/09/21 03:25:16;;;;;;;;;;;17.00;58.20;;;;;;5068783;28;20014;-67
2022/09/21 03:27:42;;;;;;;;;;;17.00;58.20;;;;;;5084752;28;19927;-70
2022/09/21 03:30:07;;;;;;;;;;;17.00;58.20;;;;;;5084208;28;19920;-67
2022/09/21 03:32:33;;;;;;;;;;;17.00;58.20;;;;;;5087411;28;19928;-67
2022/09/21 03:34:58;;;;;;;;;;;17.00;58.20;;;;;;5089108;28;19970;-67
2022/09/21 03:37:24;;;;;;;;;;;17.00;58.20;;;;;;5087425;28;20391;-67
2022/09/21 03:39:49;;;;;;;;;;;17.00;58.20;;;;;;5101797;28;19924;-67
2022/09/21 03:42:15;;;;;;;;;;;16.90;58.10;;;;;;5090370;28;19927;-68
2022/09/21 03:44:40;;;;;;;;;;;16.90;58.10;;;;;;5108411;28;19920;-68
2022/09/21 03:47:06;;;;;;;;;;;16.90;58.10;;;;;;5108091;28;20299;-72
2022/09/21 03:49:33;;;;;;;;;;;16.90;58.10;;;;;;5108789;28;19927;-68
2022/09/21 03:51:58;;;;;;;;;;;16.90;58.10;;;;;;5095809;28;19920;-68
2022/09/21 03:54:24;;;;;;;;;;;16.90;58.00;;;;;;5093993;28;19931;-68
2022/09/21 03:56:50;;;;;;;;;;;16.90;58.00;;;;;;5095377;28;19989;-68
2022/09/21 03:59:16;;;;;;;;;;;16.90;58.00;;;;;;5094034;28;19981;-68
2022/09/21 04:01:42;;;;;;;;;;;16.90;58.00;;;;;;5076992;28;19920;-68
2022/09/21 04:04:07;;;;;;;;;;;16.90;58.00;;;;;;5095152;28;19942;-68
2022/09/21 04:06:33;;;;;;;;;;;16.80;58.00;;;;;;5077175;28;19923;-68
2022/09/21 04:09:01;;;;;;;;;;;16.80;58.00;;;;;;5095207;28;19920;-68
2022/09/21 04:11:27;;;;;;;;;;;16.90;58.00;;;;;;5094826;28;20291;-68
2022/09/21 04:13:55;;;;;;;;;;;16.80;57.90;;;;;;5076879;28;20384;-68
2022/09/21 04:16:22;;;;;;;;;;;16.80;57.90;;;;;;5076684;28;20360;-68
2022/09/21 04:18:49;;;;;;;;;;;16.80;57.90;;;;;;5076582;28;19924;-68
2022/09/21 04:21:15;;;;;;;;;;;16.80;57.80;;;;;;5076922;28;19924;-73
2022/09/21 04:23:41;;;;;;;;;;;16.90;57.90;;;;;;5076978;28;19958;-68
2022/09/21 04:26:16;;;;;;;;;;;16.80;57.80;;;;;;5094692;28;20344;-68
2022/09/21 04:28:41;;;;;;;;;;;16.80;57.80;;;;;;5094714;28;19934;-68
2022/09/21 04:31:07;;;;;;;;;;;16.80;57.80;;;;;;5093542;28;19959;-68
2022/09/21 04:33:33;;;;;;;;;;;16.80;57.80;;;;;;5076339;28;20314;-68
2022/09/21 04:35:58;;;;;;;;;;;16.80;57.80;;;;;;5094409;28;19978;-68
2022/09/21 04:38:24;;;;;;;;;;;16.80;57.80;;;;;;5094146;28;20356;-68
2022/09/21 04:40:57;;;;;;;;;;;16.80;57.80;;;;;;5076549;28;19924;-68
2022/09/21 04:43:22;;;;;;;;;;;16.80;57.80;;;;;;5094381;28;20010;-68
2022/09/21 04:45:48;;;;;;;;;;;16.80;57.70;;;;;;5076516;28;20012;-68
2022/09/21 04:48:14;;;;;;;;;;;16.80;57.70;;;;;;5076312;28;20372;-73
2022/09/21 04:50:39;;;;;;;;;;;16.80;57.70;;;;;;5076183;28;20061;-68
2022/09/21 04:53:05;;;;;;;;;;;16.70;57.60;;;;;;5076017;28;19920;-68
2022/09/21 04:55:31;;;;;;;;;;;16.70;57.60;;;;;;5094314;28;19967;-68
2022/09/21 04:57:56;;;;;;;;;;;16.80;57.60;;;;;;5075956;28;20286;-68
2022/09/21 05:00:22;;;;;;;;;;;16.70;57.50;;;;;;5075813;28;19939;-68
2022/09/21 05:02:47;;;;;;;;;;;16.70;57.50;;;;;;5092973;28;19934;-68
2022/09/21 05:05:13;;;;;;;;;;;16.70;57.50;;;;;;5093916;28;20003;-68
2022/09/21 05:07:38;;;;;;;;;;;16.70;57.50;;;;;;5094072;28;19946;-68
2022/09/21 05:10:04;;;;;;;;;;;16.70;57.50;;;;;;5093865;28;20351;-68
2022/09/21 05:12:31;;;;;;;;;;;16.70;57.40;;;;;;5075886;28;19920;-68
2022/09/21 05:14:56;;;;;;;;;;;16.70;57.40;;;;;;5075611;28;20399;-68
2022/09/21 05:17:22;;;;;;;;;;;16.70;57.40;;;;;;5075529;28;19920;-72
2022/09/21 05:19:48;;;;;;;;;;;16.70;57.40;;;;;;5093583;28;19931;-68
2022/09/21 05:22:13;;;;;;;;;;;16.70;57.40;;;;;;5093861;28;20027;-68
2022/09/21 05:24:39;;;;;;;;;;;16.80;57.50;;;;;;5075345;28;20418;-68
2022/09/21 05:27:04;;;;;;;;;;;16.60;57.30;;;;;;5075373;28;19927;-68
2022/09/21 05:29:30;;;;;;;;;;;16.70;57.40;;;;;;5075543;28;19928;-68
2022/09/21 05:32:02;;;;;;;;;;;16.70;57.30;;;;;;5075246;28;19920;-68
2022/09/21 05:37:27;;;;;;;;;;;16.70;57.30;;;;;;5107874;27;19912;-67
2022/09/21 05:39:53;;;;;;;;;;;16.70;57.30;;;;;;5088165;28;19967;-67
2022/09/21 05:42:18;;;;;;;;;;;16.70;57.30;;;;;;5104129;28;19959;-67
2022/09/21 05:44:44;;;;;;;;;;;16.70;57.30;;;;;;5104442;28;20003;-67
2022/09/21 05:47:30;;;;;;;;;;;16.70;57.30;;;;;;5105607;28;19920;-67
2022/09/21 05:52:47;;;;;;;;;;;16.70;57.20;;;;;;5086761;28;19916;-67
2022/09/21 05:55:33;;;;;;;;;;;16.70;57.20;;;;;;5076772;28;20011;-67
2022/09/21 06:00:45;;;;;;;;;;;16.70;57.20;;;;;;5086064;28;19922;-67
2022/09/21 06:03:28;;;;;;;;;;;16.70;57.20;;;;;;5082490;28;19952;-67
2022/09/21 06:05:53;;;;;;;;;;;16.70;57.50;;;;;;5080163;28;20011;-66
2022/09/21 06:08:19;;;;;;;;;;;16.80;57.50;;;;;;5077844;28;20003;-67
2022/09/21 06:10:44;;;;;;;;;;;17.00;57.40;;;;;;5068656;28;19955;-66
2022/09/21 06:13:10;;;;;;;;;;;17.10;57.40;;;;;;5068779;28;19966;-65
2022/09/21 06:15:37;;;;;;;;;;;17.20;57.30;;;;;;5063928;28;19925;-64
2022/09/21 06:18:04;;;;;;;;;;;17.30;57.30;;;;;;5046137;28;19932;-66
2022/09/21 06:20:30;;;;;;;;;;;17.40;58.20;;;;;;5063102;28;20439;-65
2022/09/21 06:23:00;;;;;;;;;;;17.50;57.40;;;;;;5065039;28;19935;-66
2022/09/21 06:25:25;;;;;;;;;;;17.50;57.30;;;;;;5063672;28;19932;-67
2022/09/21 06:27:51;;;;;;;;;;;17.60;57.40;;;;;;5061440;28;20544;-66
2022/09/21 06:30:16;;;;;;;;;;;17.60;57.50;;;;;;5064293;28;19924;-67
2022/09/21 06:32:42;;;;;;;;;;;17.70;57.50;;;;;;5067305;28;20399;-66
2022/09/21 06:35:07;;;;;;;;;;;17.70;57.50;;;;;;5062768;28;19920;-70
2022/09/21 06:37:33;;;;;;;;;;;17.70;57.50;;;;;;5065958;28;19920;-70
2022/09/21 06:39:58;;;;;;;;;;;17.80;57.50;;;;;;5066157;28;19928;-76
2022/09/21 06:42:26;;;;;;;;;;;17.80;57.60;;;;;;5065499;28;19932;-68
2022/09/21 06:44:51;;;;;;;;;;;17.80;57.70;;;;;;5066105;28;20395;-71
2022/09/21 06:47:17;;;;;;;;;;;17.80;57.80;;;;;;5065299;28;19928;-65
2022/09/21 06:49:42;;;;;;;;;;;17.80;57.60;;;;;;5065109;28;19924;-64
2022/09/21 06:52:08;;;;;;;;;;;17.90;57.60;;;;;;5065409;28;19924;-64
2022/09/21 06:54:33;;;;;;;;;;;17.90;57.50;;;;;;5062782;28;20019;-67
2022/09/21 06:56:59;;;;;;;;;;;18.00;57.40;;;;;;5065229;28;19968;-65
2022/09/21 06:59:24;;;;;;;;;;;18.10;57.40;;;;;;5065739;28;20311;-65
2022/09/21 07:01:50;;;;;;;;;;;18.10;57.20;;;;;;5080253;28;19929;-68
2022/09/21 07:04:15;;;;;;;;;;;18.20;57.20;;;;;;5073092;28;20016;-73
2022/09/21 07:06:41;;;;;;;;;;;18.20;57.20;;;;;;5063689;28;20248;-67
2022/09/21 07:09:06;;;;;;;;;;;18.20;57.20;;;;;;5063250;28;21666;-67
2022/09/21 07:11:32;;;;;;;;;;;18.20;57.30;;;;;;5052377;28;19935;-68
2022/09/21 07:13:58;;;;;;;;;;;18.20;57.30;;;;;;5053180;28;19931;-68
2022/09/21 07:16:24;;;;;;;;;;;18.20;57.40;;;;;;5050871;28;19936;-68
2022/09/21 07:18:49;;;;;;;;;;;18.20;57.40;;;;;;5053310;28;19932;-68
2022/09/21 07:21:15;;;;;;;;;;;18.30;57.60;;;;;;5052628;28;19928;-68
2022/09/21 07:23:41;;;;;;;;;;;18.30;57.60;;;;;;5052618;28;19924;-68
2022/09/21 07:26:08;;;;;;;;;;;18.40;57.70;;;;;;5055971;28;19924;-68
2022/09/21 07:28:34;;;;;;;;;;;18.50;57.80;;;;;;5056792;28;20053;-68
2022/09/21 07:31:15;;;;;;;;;;;18.50;57.90;;;;;;5053910;28;21345;-68
2022/09/21 07:33:42;;;;;;;;;;;18.50;58.00;;;;;;5056282;28;20390;-68
2022/09/21 07:36:09;;;;;;;;;;;18.50;57.90;;;;;;5054970;28;19924;-68
2022/09/21 07:38:42;;;;;;;;;;;18.60;57.90;;;;;;5051120;28;20823;-68
2022/09/21 07:41:10;;;;;;;;;;;18.60;58.10;;;;;;5053877;28;19924;-69
2022/09/21 07:43:38;;;;;;;;;;;18.60;58.20;;;;;;5056001;28;19921;-68
2022/09/21 07:46:04;;;;;;;;;;;18.60;58.00;;;;;;5063431;28;19925;-69
2022/09/21 07:48:30;;;;;;;;;;;18.50;58.20;;;;;;5058125;28;19924;-69
2022/09/21 07:51:00;;;;;;;;;;;18.50;58.30;;;;;;5051690;28;20011;-69
2022/09/21 07:53:25;;;;;;;;;;;18.50;58.40;;;;;;5055464;28;19932;-70
2022/09/21 07:55:51;;;;;;;;;;;18.50;58.50;;;;;;5054199;28;19921;-71
2022/09/21 08:01:04;;;;;;;;;;;18.60;58.60;;;;;;5077714;28;20276;-71
2022/09/21 08:03:30;;;;;;;;;;;18.60;58.70;;;;;;5060229;28;20253;-68
2022/09/21 08:05:57;;;;;;;;;;;18.60;58.70;;;;;;5075297;28;19924;-69
2022/09/21 08:08:24;;;;;;;;;;;18.60;58.80;;;;;;5060085;28;19924;-68
2022/09/21 08:10:51;;;;;;;;;;;18.60;58.90;;;;;;5073600;28;19970;-68
2022/09/21 08:13:17;;;;;;;;;;;18.60;59.10;;;;;;5073066;28;20001;-68
2022/09/21 08:15:42;;;;;;;;;;;18.60;59.20;;;;;;5072269;28;19932;-67
2022/09/21 08:18:08;;;;;;;;;;;18.60;59.30;;;;;;5056413;28;19980;-68
2022/09/21 08:20:34;;;;;;;;;;;18.60;59.20;;;;;;5052671;28;20312;-69
2022/09/21 08:22:59;;;;;;;;;;;18.50;59.20;;;;;;5054610;28;20649;-69
2022/09/21 08:25:26;;;;;;;;;;;18.50;59.20;;;;;;5075392;28;19959;-69
2022/09/21 08:27:56;;;;;;;;;;;18.50;59.20;;;;;;5074361;28;19925;-69
2022/09/21 08:30:21;;;;;;;;;;;18.40;59.20;;;;;;5072236;28;19928;-69
2022/09/21 08:32:47;;;;;;;;;;;18.40;59.20;;;;;;5051330;28;19985;-69
2022/09/21 08:35:12;;;;;;;;;;;18.40;59.30;;;;;;5066801;28;19920;-69
2022/09/21 08:37:38;;;;;;;;;;;18.40;59.40;;;;;;5062082;28;20457;-68
2022/09/21 08:40:05;;;;;;;;;;;18.30;59.20;;;;;;5055467;28;19974;-72
2022/09/21 08:42:39;;;;;;;;;;;18.30;59.30;;;;;;5073483;28;20111;-70
2022/09/21 08:45:09;;;;;;;;;;;18.30;59.30;;;;;;5071840;28;20011;-70
2022/09/21 08:47:52;;;;;;;;;;;18.20;59.20;;;;;;5070352;28;19946;-71
2022/09/21 08:50:24;;;;;;;;;;;18.20;59.20;;;;;;5072865;28;19930;-68
2022/09/21 08:52:51;;;;;;;;;;;18.20;59.20;;;;;;5054819;28;19925;-70
2022/09/21 08:55:18;;;;;;;;;;;18.20;59.30;;;;;;5054202;28;19924;-70
2022/09/21 08:57:43;;;;;;;;;;;18.20;59.20;;;;;;5055306;28;19920;-72
2022/09/21 09:00:13;;;;;;;;;;;18.20;59.30;;;;;;5068791;28;19928;-67
2022/09/21 09:02:50;;;;;;;;;;;18.20;59.20;;;;;;5070340;28;19924;-69
2022/09/21 09:11:07;;;;;;;;;;;18.20;59.70;;;;;;5136314;27;20002;-67
2022/09/21 09:16:33;;;;;;;;;;;18.40;60.20;;;;;;5081480;27;19942;-72
2022/09/21 09:21:41;;;;;;;;;;;18.40;60.10;;;;;;5053057;27;19928;-69
2022/09/21 09:26:51;;;;;;;;;;;18.60;60.30;;;;;;5115661;27;1860831;-74
2022/09/21 09:32:00;;;;;;;;;;;18.70;60.30;;;;;;5050977;27;20315;-69
2022/09/21 09:37:11;;;;;;;;;;;18.70;60.30;;;;;;5135742;27;19919;-67
2022/09/21 09:39:37;;;;;;;;;;;18.70;60.40;;;;;;5116692;27;19919;-67
2022/09/21 09:42:23;;;;;;;;;;;18.70;60.30;;;;;;5121401;27;19928;-68
2022/09/21 09:47:39;;;;;;;;;;;18.80;60.50;;;;;;5055835;28;20350;-67
2022/09/21 09:50:07;;;;;;;;;;;18.80;60.50;;;;;;5050361;28;19936;-68
2022/09/21 09:52:33;;;;;;;;;;;18.90;60.50;;;;;;5056356;28;19920;-67
2022/09/21 09:55:00;;;;;;;;;;;18.90;60.50;;;;;;5054793;28;20568;-67
2022/09/21 09:57:28;;;;;;;;;;;18.90;60.50;;;;;;5059349;28;19928;-67
2022/09/21 09:59:57;;;;;;;;;;;19.00;60.40;;;;;;5050638;28;19935;-71
2022/09/21 10:02:23;;;;;;;;;;;19.00;60.30;;;;;;5055095;28;19924;-67
2022/09/21 10:05:08;;;;;;;;;;;19.10;60.40;;;;;;5058423;28;19925;-67
2022/09/21 10:07:35;;;;;;;;;;;19.10;60.20;;;;;;5049150;28;19940;-69
2022/09/21 10:10:01;;;;;;;;;;;19.20;60.30;;;;;;5049710;28;19925;-67
2022/09/21 10:12:26;;;;;;;;;;;19.20;60.30;;;;;;5055618;28;19935;-67
2022/09/21 10:14:53;;;;;;;;;;;19.30;60.30;;;;;;5055173;28;19987;-65
2022/09/21 10:17:19;;;;;;;;;;;19.30;60.40;;;;;;5052994;28;19920;-65
2022/09/21 10:19:45;;;;;;;;;;;19.40;60.00;;;;;;5068678;28;19983;-68
2022/09/21 10:22:18;;;;;;;;;;;19.40;60.00;;;;;;5054415;28;20312;-70
2022/09/21 10:24:48;;;;;;;;;;;19.50;59.90;;;;;;5053547;28;19929;-70
2022/09/21 10:27:15;;;;;;;;;;;19.50;59.80;;;;;;5052994;28;19943;-72
2022/09/21 10:29:42;;;;;;;;;;;19.70;59.70;;;;;;5047085;28;19937;-66
2022/09/21 10:37:49;;;;;;;;;;;19.80;58.90;;;;;;5096813;27;1848146;-65
2022/09/21 10:42:57;;;;;;;;;;;19.90;58.40;;;;;;5051069;28;19917;-65
2022/09/21 10:45:25;;;;;;;;;;;19.90;58.20;;;;;;5044093;28;19921;-69
2022/09/21 10:47:53;;;;;;;;;;;19.90;57.90;;;;;;5040091;28;19987;-66
2022/09/21 10:50:35;;;;;;;;;;;20.00;58.30;;;;;;5042997;28;19932;-67
2022/09/21 10:53:10;;;;;;;;;;;20.00;58.40;;;;;;5034130;28;20279;-66
2022/09/21 10:55:38;;;;;;;;;;;20.00;58.30;;;;;;5033201;28;19927;-76
2022/09/21 10:58:08;;;;;;;;;;;20.00;58.40;;;;;;5061332;28;19994;-66
2022/09/21 11:00:40;;;;;;;;;;;20.00;58.20;;;;;;5038190;28;19921;-66
2022/09/21 11:03:27;;;;;;;;;;;20.00;57.90;;;;;;5047703;28;20392;-67
2022/09/21 11:05:53;;;;;;;;;;;20.00;57.60;;;;;;5044865;28;20287;-67
2022/09/21 11:08:38;;;;;;;;;;;20.00;57.60;;;;;;5054502;28;20004;-66
2022/09/21 11:11:12;;;;;;;;;;;20.00;57.70;;;;;;5055401;28;20384;-67
2022/09/21 11:13:42;;;;;;;;;;;19.90;57.40;;;;;;5065785;28;19921;-67
2022/09/21 11:18:54;;;;;;;;;;;19.90;57.30;;;;;;5086457;28;19912;-65
2022/09/21 11:29:28;;;;;;;;;;;19.80;56.70;;;;;;5097749;27;19922;-67
2022/09/21 11:37:47;;;;;;;;;;;19.80;57.00;;;;;;5086070;28;19913;-67
2022/09/21 11:40:32;;;;;;;;;;;19.90;57.00;;;;;;5085378;28;20551;-65
2022/09/21 11:48:35;;;;;;;;;;;19.90;56.70;;;;;;5105526;27;20412;-68
2022/09/21 11:51:22;;;;;;;;;;;19.90;56.90;;;;;;5103612;28;20003;-68
2022/09/21 11:56:47;;;;;;;;;;;19.90;56.70;;;;;;5106385;27;19912;-66
2022/09/21 12:01:58;;;;;;;;;;;19.90;56.90;;;;;;5086747;28;19943;-65
2022/09/21 12:07:09;;;;;;;;;;;20.00;56.70;;;;;;5085699;28;19912;-65
2022/09/21 12:12:20;;;;;;;;;;;20.00;56.20;;;;;;5105931;27;19912;-66
2022/09/21 12:20:13;;;;;;;;;;;20.10;56.10;;;;;;5088298;28;20298;-66
2022/09/21 12:22:41;;;;;;;;;;;20.00;55.80;;;;;;5086504;28;19932;-67
2022/09/21 12:25:18;;;;;;;;;;;20.00;55.80;;;;;;5085173;28;19943;-66
2022/09/21 12:27:53;;;;;;;;;;;20.00;55.70;;;;;;5086832;28;20391;-66
2022/09/21 12:30:20;;;;;;;;;;;20.00;55.50;;;;;;5084775;28;19924;-67
2022/09/21 12:33:04;;;;;;;;;;;20.10;55.40;;;;;;5084588;28;20410;-66
2022/09/21 12:35:33;;;;;;;;;;;20.10;55.30;;;;;;5081776;28;19927;-66
2022/09/21 12:38:04;;;;;;;;;;;20.00;55.10;;;;;;5085230;28;19924;-72
2022/09/21 12:43:30;;;;;;;;;;;20.00;55.10;;;;;;5088530;28;19913;-65
2022/09/21 12:48:38;;;;;;;;;;;20.00;55.20;;;;;;5106998;27;20288;-68
2022/09/21 12:51:23;;;;;;;;;;;20.00;54.20;;;;;;5105384;28;20417;-67
2022/09/21 12:53:50;;;;;;;;;;;20.00;54.30;;;;;;5128090;27;20435;-67
2022/09/21 12:59:18;;;;;;;;;;;20.10;54.40;;;;;;5087037;28;20440;-68
2022/09/21 13:01:50;;;;;;;;;;;20.10;54.40;;;;;;5066281;28;19925;-66
2022/09/21 13:07:03;;;;;;;;;;;20.10;54.50;;;;;;5086282;28;19916;-68
2022/09/21 13:09:29;;;;;;;;;;;20.10;54.70;;;;;;5085923;28;20323;-66
2022/09/21 13:11:58;;;;;;;;;;;20.10;54.60;;;;;;5085549;28;19921;-65
2022/09/21 13:14:29;;;;;;;;;;;20.10;54.70;;;;;;5070092;28;19920;-65
2022/09/21 13:16:56;;;;;;;;;;;20.20;55.00;;;;;;5071784;28;19921;-66
2022/09/21 13:19:23;;;;;;;;;;;20.20;54.70;;;;;;5065149;28;19947;-68
2022/09/21 13:22:13;;;;;;;;;;;20.20;54.60;;;;;;5064771;28;19925;-69
2022/09/21 13:24:41;;;;;;;;;;;20.20;54.50;;;;;;5064731;28;19931;-70
2022/09/21 13:27:07;;;;;;;;;;;20.20;54.20;;;;;;5065866;28;19952;-68
2022/09/21 13:29:33;;;;;;;;;;;20.30;53.90;;;;;;5065005;28;19999;-70
2022/09/21 13:32:19;;;;;;;;;;;20.30;54.20;;;;;;5061401;28;19921;-69
2022/09/21 13:34:47;;;;;;;;;;;20.20;54.30;;;;;;5060219;28;19929;-68
2022/09/21 13:42:43;;;;;;;;;;;20.30;54.50;;;;;;5074705;28;19923;-66
2022/09/21 13:47:57;;;;;;;;;;;20.30;54.20;;;;;;5087030;28;19923;-71
2022/09/21 13:53:05;;;;;;;;;;;20.40;54.20;;;;;;5087290;28;19916;-66
2022/09/21 13:55:33;;;;;;;;;;;20.30;53.70;;;;;;5085325;28;19924;-67
2022/09/21 13:58:03;;;;;;;;;;;20.40;53.80;;;;;;5085739;28;20011;-69
2022/09/21 14:00:32;;;;;;;;;;;20.30;53.70;;;;;;5087178;28;19924;-69
2022/09/21 14:03:02;;;;;;;;;;;20.40;53.00;;;;;;5086807;28;20019;-69
2022/09/21 14:11:01;;;;;;;;;;;20.30;52.40;;;;;;5088428;28;19912;-69
2022/09/21 14:16:34;;;;;;;;;;;20.20;52.40;;;;;;5088158;28;19912;-69
2022/09/21 14:19:01;;;;;;;;;;;20.20;52.50;;;;;;5088932;28;20319;-69
2022/09/21 14:21:26;;;;;;;;;;;20.20;52.60;;;;;;5087857;28;19999;-69
2022/09/21 14:26:54;;;;;;;;;;;20.10;52.70;;;;;;5127842;27;1852505;-69
2022/09/21 14:29:24;;;;;;;;;;;20.10;52.90;;;;;;5173671;27;20276;-69
2022/09/21 14:31:51;;;;;;;;;;;20.00;52.90;;;;;;5173006;27;19923;-70
2022/09/21 14:34:19;;;;;;;;;;;20.00;53.00;;;;;;5172369;27;19923;-70
2022/09/21 14:36:48;;;;;;;;;;;20.00;53.10;;;;;;5173115;27;19963;-69
2022/09/21 14:39:18;;;;;;;;;;;20.00;53.20;;;;;;5173385;27;19925;-70
2022/09/21 14:41:44;;;;;;;;;;;20.00;53.30;;;;;;5173251;27;20006;-69
2022/09/21 14:44:17;;;;;;;;;;;20.00;53.30;;;;;;5174115;27;19971;-70
2022/09/21 14:46:48;;;;;;;;;;;19.90;53.30;;;;;;5174069;27;19922;-69
2022/09/21 14:49:34;;;;;;;;;;;19.90;53.40;;;;;;5173078;27;19971;-69
2022/09/21 14:52:11;;;;;;;;;;;19.90;53.40;;;;;;5190511;27;20267;-69
2022/09/21 14:54:42;;;;;;;;;;;19.90;53.50;;;;;;5190473;27;19926;-69
2022/09/21 14:57:23;;;;;;;;;;;19.80;54.30;;;;;;5172475;27;19955;-71
2022/09/21 15:02:30;;;;;;;;;;;19.90;53.70;;;;;;5109243;27;19912;-70
2022/09/21 15:04:59;;;;;;;;;;;19.80;53.60;;;;;;5108494;28;19927;-71
2022/09/21 15:11:04;;;;;;;;;;;19.80;53.70;;;;;;5107767;28;19928;-69
2022/09/21 15:13:23;;;;;;;;;;;19.80;53.80;;;;;;5108231;28;19927;-70
2022/09/21 15:18:38;;;;;;;;;;;19.80;53.90;;;;;;5089046;28;19919;-69
2022/09/21 15:21:04;;;;;;;;;;;19.70;53.90;;;;;;5088042;28;20273;-69
2022/09/21 15:23:32;;;;;;;;;;;19.80;54.00;;;;;;5087765;28;19927;-71
2022/09/21 15:26:01;;;;;;;;;;;19.80;54.00;;;;;;5088277;28;19925;-70
2022/09/21 15:28:29;;;;;;;;;;;19.80;54.10;;;;;;5088110;28;20003;-70
2022/09/21 15:30:56;;;;;;;;;;;19.80;54.10;;;;;;5087538;28;20319;-70
2022/09/21 15:33:22;;;;;;;;;;;19.80;54.10;;;;;;5086295;28;19974;-70
2022/09/21 15:35:48;;;;;;;;;;;19.70;54.20;;;;;;5086495;28;19924;-70
2022/09/21 15:38:31;;;;;;;;;;;19.70;54.20;;;;;;5087036;28;20277;-72
2022/09/21 15:40:56;;;;;;;;;;;19.70;54.20;;;;;;5088493;28;19921;-70
2022/09/21 15:43:22;;;;;;;;;;;19.70;54.30;;;;;;5088594;28;19921;-69
2022/09/21 15:48:33;;;;;;;;;;;19.70;54.30;;;;;;5109800;27;20283;-69
2022/09/21 15:53:43;;;;;;;;;;;19.70;54.40;;;;;;5108449;27;19912;-69
2022/09/21 15:56:24;;;;;;;;;;;19.70;54.40;;;;;;5090217;28;19968;-70
2022/09/21 15:58:52;;;;;;;;;;;19.70;54.50;;;;;;5090942;28;19920;-69
2022/09/21 16:01:20;;;;;;;;;;;19.70;54.40;;;;;;5091179;28;19973;-70
2022/09/21 16:03:46;;;;;;;;;;;19.70;54.50;;;;;;5090607;28;19920;-70
2022/09/21 16:06:32;;;;;;;;;;;19.70;54.50;;;;;;5090612;28;19924;-69
2022/09/21 16:08:57;;;;;;;;;;;19.70;54.60;;;;;;5088366;28;19935;-71
2022/09/21 16:17:16;;;;;;;;;;;19.70;55.00;;;;;;5091370;28;19942;-68
2022/09/21 16:22:35;;;;;;;;;;;19.80;55.00;;;;;;5109418;27;19912;-67
2022/09/21 16:25:02;;;;;;;;;;;19.90;54.90;;;;;;5108532;28;19930;-67
2022/09/21 16:27:29;;;;;;;;;;;19.90;55.00;;;;;;5108743;28;20294;-67
2022/09/21 16:29:56;;;;;;;;;;;19.90;55.00;;;;;;5108095;28;19924;-68
2022/09/21 16:32:36;;;;;;;;;;;20.00;55.10;;;;;;5107323;28;19982;-67
2022/09/21 16:35:20;;;;;;;;;;;20.00;55.20;;;;;;5107002;28;19920;-68
2022/09/21 16:37:46;;;;;;;;;;;20.00;55.20;;;;;;5107485;28;19974;-67
2022/09/21 16:40:13;;;;;;;;;;;20.00;55.30;;;;;;5107765;28;20325;-69
2022/09/21 16:42:39;;;;;;;;;;;20.00;55.40;;;;;;5107541;28;19924;-69
2022/09/21 16:45:09;;;;;;;;;;;20.00;55.50;;;;;;5108099;28;19975;-68
2022/09/21 16:47:36;;;;;;;;;;;20.00;55.60;;;;;;5107989;28;19920;-68
2022/09/21 16:50:06;;;;;;;;;;;20.00;55.70;;;;;;5108962;28;19924;-68
2022/09/21 16:52:32;;;;;;;;;;;20.00;55.80;;;;;;5108342;28;20264;-68
2022/09/21 16:54:57;;;;;;;;;;;19.90;55.70;;;;;;5107658;28;19927;-70
2022/09/21 16:57:24;;;;;;;;;;;20.00;55.80;;;;;;5105981;28;19924;-68
2022/09/21 16:59:50;;;;;;;;;;;19.90;55.70;;;;;;5108022;28;20006;-68
2022/09/21 17:02:16;;;;;;;;;;;19.90;55.80;;;;;;5108388;28;20050;-68
2022/09/21 17:04:42;;;;;;;;;;;19.90;55.80;;;;;;5108673;28;19927;-68
2022/09/21 17:07:09;;;;;;;;;;;19.90;55.90;;;;;;5107713;28;19923;-68
2022/09/21 17:09:37;;;;;;;;;;;19.80;55.90;;;;;;5107473;28;19927;-68